createdAt,value
2023-05-11T00:01:07.709Z,11.92
2023-05-11T00:03:39.443Z,11.87
2023-05-11T00:06:09.194Z,11.85
2023-05-11T00:08:38.903Z,11.81
2023-05-11T00:11:10.406Z,11.81
2023-05-11T00:13:39.745Z,11.80
2023-05-11T00:16:09.180Z,11.76
2023-05-11T00:18:45.734Z,11.76
2023-05-11T00:21:15.373Z,11.76
2023-05-11T00:23:51.247Z,11.76
2023-05-11T00:26:20.973Z,11.73
2023-05-11T00:28:50.681Z,11.67
2023-05-11T00:31:20.088Z,11.64
2023-05-11T00:33:51.676Z,11.61
2023-05-11T00:36:20.925Z,11.58
2023-05-11T00:38:50.245Z,11.54
2023-05-11T00:41:19.572Z,11.52
2023-05-11T00:43:49.426Z,11.47
2023-05-11T00:46:29.225Z,11.47
2023-05-11T00:49:01.091Z,11.42
2023-05-11T00:51:31.656Z,11.49
2023-05-11T00:54:02.246Z,11.43
2023-05-11T00:56:31.671Z,11.44
2023-05-11T00:59:01.397Z,11.45
2023-05-11T01:01:31.450Z,11.49
2023-05-11T01:04:02.806Z,11.46
2023-05-11T01:06:52.446Z,11.46
2023-05-11T01:09:37.563Z,11.48
2023-05-11T01:12:16.140Z,11.47
2023-05-11T01:17:39.281Z,11.46
2023-05-11T01:20:18.727Z,11.37
2023-05-11T01:23:09.956Z,11.29
2023-05-11T01:26:09.010Z,11.27
2023-05-11T01:29:07.438Z,11.37
2023-05-11T01:31:43.030Z,11.36
2023-05-11T01:34:22.732Z,11.52
2023-05-11T01:36:55.872Z,11.54
2023-05-11T01:39:30.848Z,11.48
2023-05-11T01:42:06.749Z,11.42
2023-05-11T01:44:44.611Z,11.30
2023-05-11T01:47:17.660Z,11.27
2023-05-11T01:49:47.813Z,11.26
2023-05-11T01:52:18.730Z,11.25
2023-05-11T01:54:50.499Z,11.34
2023-05-11T01:57:21.350Z,11.36
2023-05-11T01:59:57.180Z,11.39
2023-05-11T02:02:47.081Z,11.37
2023-05-11T02:05:20.300Z,11.35
2023-05-11T02:07:52.219Z,11.30
2023-05-11T02:10:34.102Z,11.30
2023-05-11T02:13:07.495Z,11.18
2023-05-11T02:15:46.650Z,11.14
2023-05-11T02:18:19.464Z,11.07
2023-05-11T02:21:02.394Z,11.02
2023-05-11T02:23:38.050Z,11.01
2023-05-11T02:26:10.310Z,10.95
2023-05-11T02:28:39.938Z,10.94
2023-05-11T02:31:14.663Z,10.80
2023-05-11T02:33:54.398Z,10.76
2023-05-11T02:36:25.712Z,10.71
2023-05-11T02:39:07.721Z,10.74
2023-05-11T02:41:43.010Z,10.80
2023-05-11T02:44:26.428Z,10.89
2023-05-11T02:46:58.153Z,10.95
2023-05-11T02:49:31.558Z,11.31
2023-05-11T02:52:03.489Z,11.37
2023-05-11T02:54:36.377Z,11.46
2023-05-11T02:57:12.775Z,11.52
2023-05-11T02:59:53.924Z,11.59
2023-05-11T03:02:24.119Z,11.66
2023-05-11T03:04:55.550Z,11.68
2023-05-11T03:07:30.508Z,11.68
2023-05-11T03:10:00.043Z,11.65
2023-05-11T03:12:32.711Z,11.76
2023-05-11T03:15:02.626Z,11.80
2023-05-11T03:17:37.554Z,11.87
2023-05-11T03:20:10.734Z,11.99
2023-05-11T03:25:28.817Z,12.07
2023-05-11T03:28:05.517Z,12.09
2023-05-11T03:30:37.097Z,12.11
2023-05-11T03:33:06.675Z,12.10
2023-05-11T03:35:39.727Z,12.09
2023-05-11T03:38:10.975Z,12.17
2023-05-11T03:40:43.495Z,12.24
2023-05-11T03:43:17.208Z,12.22
2023-05-11T03:45:50.505Z,12.24
2023-05-11T03:48:31.873Z,12.21
2023-05-11T03:51:03.634Z,12.35
2023-05-11T03:53:38.430Z,12.36
2023-05-11T03:56:08.844Z,12.44
2023-05-11T03:58:46.293Z,12.51
2023-05-11T04:01:22.464Z,12.58
2023-05-11T04:03:53.110Z,12.56
2023-05-11T04:06:27.231Z,12.49
2023-05-11T04:09:15.159Z,12.64
2023-05-11T04:11:44.764Z,12.67
2023-05-11T04:14:13.969Z,12.68
2023-05-11T04:16:44.721Z,12.78
2023-05-11T04:19:19.702Z,12.81
2023-05-11T04:24:26.334Z,12.87
2023-05-11T04:27:00.217Z,12.74
2023-05-11T04:29:34.761Z,12.75
2023-05-11T04:32:04.727Z,12.69
2023-05-11T04:34:34.685Z,12.56
2023-05-11T04:37:07.823Z,12.58
2023-05-11T04:39:45.233Z,12.65
2023-05-11T04:42:14.878Z,12.72
2023-05-11T04:44:45.888Z,12.95
2023-05-11T04:47:21.363Z,13.02
2023-05-11T04:49:51.794Z,13.01
2023-05-11T04:52:23.693Z,12.90
2023-05-11T04:54:53.273Z,12.88
2023-05-11T04:57:22.560Z,13.00
2023-05-11T04:59:52.357Z,13.24
2023-05-11T05:02:21.861Z,13.44
2023-05-11T05:04:51.511Z,13.66
2023-05-11T05:07:22.749Z,13.85
2023-05-11T05:09:57.848Z,14.02
2023-05-11T05:15:12.284Z,14.27
2023-05-11T05:17:47.888Z,14.23
2023-05-11T05:20:23.468Z,14.18
2023-05-11T05:22:55.000Z,14.13
2023-05-11T05:25:24.556Z,14.08
2023-05-11T05:28:00.164Z,14.08
2023-05-11T05:30:30.033Z,13.94
2023-05-11T05:32:59.764Z,14.19
2023-05-11T05:35:29.071Z,14.50
2023-05-11T05:38:09.413Z,15.08
2023-05-11T05:40:40.591Z,15.77
2023-05-11T05:43:11.603Z,16.34
2023-05-11T05:45:41.644Z,16.69
2023-05-11T05:48:12.167Z,16.66
2023-05-11T05:50:46.872Z,16.41
2023-05-11T05:53:19.991Z,16.24
2023-05-11T05:55:49.377Z,16.20
2023-05-11T05:58:18.638Z,16.32
2023-05-11T06:00:49.053Z,16.45
2023-05-11T06:03:18.828Z,16.63
2023-05-11T06:05:48.337Z,16.77
2023-05-11T06:08:26.422Z,17.07
2023-05-11T06:11:01.230Z,17.14
2023-05-11T06:13:31.028Z,17.40
2023-05-11T06:16:02.812Z,17.63
2023-05-11T06:18:41.004Z,17.78
2023-05-11T06:21:20.669Z,17.69
2023-05-11T06:23:52.269Z,17.62
2023-05-11T06:26:25.187Z,17.77
2023-05-11T06:31:44.016Z,17.22
2023-05-11T06:34:13.316Z,17.25
2023-05-11T06:37:01.038Z,17.33
2023-05-11T06:39:37.819Z,17.26
2023-05-11T06:42:10.201Z,17.37
2023-05-11T06:44:41.115Z,17.28
2023-05-11T06:47:22.798Z,17.32
2023-05-11T06:49:52.375Z,17.46
2023-05-11T06:52:21.650Z,17.51
2023-05-11T06:54:52.945Z,17.55
2023-05-11T06:57:27.512Z,17.90
2023-05-11T07:00:09.798Z,17.91
2023-05-11T07:02:39.886Z,17.77
2023-05-11T07:05:15.017Z,17.62
2023-05-11T07:07:45.065Z,17.47
2023-05-11T07:10:21.501Z,17.30
2023-05-11T07:12:51.366Z,17.16
2023-05-11T07:15:20.815Z,17.02
2023-05-11T07:17:55.411Z,17.07
2023-05-11T07:20:24.846Z,17.01
2023-05-11T07:23:00.545Z,17.10
2023-05-11T07:25:38.205Z,17.43
2023-05-11T07:28:07.573Z,17.70
2023-05-11T07:30:36.821Z,18.02
2023-05-11T07:33:16.775Z,18.12
2023-05-11T07:35:47.595Z,18.06
2023-05-11T07:38:23.757Z,18.05
2023-05-11T07:40:55.090Z,18.01
2023-05-11T07:43:24.408Z,17.94
2023-05-11T07:45:54.104Z,17.68
2023-05-11T07:48:24.153Z,17.85
2023-05-11T07:50:53.422Z,18.03
2023-05-11T07:53:22.765Z,17.94
2023-05-11T07:55:57.403Z,17.88
2023-05-11T07:58:28.895Z,17.75
2023-05-11T08:00:58.797Z,17.66
2023-05-11T08:03:28.299Z,17.64
2023-05-11T08:05:57.779Z,17.70
2023-05-11T08:08:47.152Z,18.03
2023-05-11T08:11:16.647Z,18.69
2023-05-11T08:16:27.947Z,19.41
2023-05-11T08:18:57.369Z,19.54
2023-05-11T08:21:33.064Z,19.76
2023-05-11T08:24:02.669Z,19.66
2023-05-11T08:26:47.746Z,19.63
2023-05-11T08:29:21.219Z,19.48
2023-05-11T08:31:55.668Z,19.30
2023-05-11T08:34:25.209Z,19.05
2023-05-11T08:36:55.758Z,19.06
2023-05-11T08:39:46.126Z,19.25
2023-05-11T08:45:02.497Z,19.94
2023-05-11T08:47:45.540Z,20.20
2023-05-11T08:50:15.345Z,20.01
2023-05-11T08:52:45.234Z,19.72
2023-05-11T08:55:41.067Z,19.29
2023-05-11T08:58:19.197Z,18.78
2023-05-11T09:00:51.460Z,18.47
2023-05-11T09:03:22.150Z,18.47
2023-05-11T09:05:52.367Z,18.69
2023-05-11T09:08:22.509Z,18.58
2023-05-11T09:10:52.104Z,18.68
2023-05-11T09:13:26.682Z,19.03
2023-05-11T09:16:03.333Z,19.47
2023-05-11T09:18:32.809Z,20.08
2023-05-11T09:23:39.323Z,21.15
2023-05-11T09:26:16.753Z,21.13
2023-05-11T09:29:02.415Z,21.22
2023-05-11T09:31:40.478Z,20.87
2023-05-11T09:34:23.117Z,20.51
2023-05-11T09:36:54.267Z,20.02
2023-05-11T09:39:38.261Z,19.68
2023-05-11T09:42:25.102Z,19.08
2023-05-11T09:44:59.627Z,19.20
2023-05-11T09:47:41.724Z,19.16
2023-05-11T09:52:55.760Z,18.98
2023-05-11T09:55:25.490Z,19.10
2023-05-11T09:57:59.873Z,19.26
2023-05-11T10:00:29.330Z,19.39
2023-05-11T10:03:05.481Z,19.59
2023-05-11T10:08:11.976Z,20.35
2023-05-11T10:13:17.086Z,20.95
2023-05-11T10:15:46.528Z,20.93
2023-05-11T10:18:20.118Z,20.99
2023-05-11T10:21:01.451Z,20.73
2023-05-11T10:23:38.456Z,19.62
2023-05-11T10:26:08.372Z,18.65
2023-05-11T10:28:37.946Z,18.22
2023-05-11T10:31:12.851Z,17.59
2023-05-11T10:33:47.261Z,16.83
2023-05-11T10:36:19.773Z,16.23
2023-05-11T10:38:49.520Z,15.88
2023-05-11T10:41:38.319Z,15.66
2023-05-11T10:44:43.809Z,15.16
2023-05-11T10:47:28.739Z,15.17
2023-05-11T10:50:18.510Z,15.55
2023-05-11T10:53:15.075Z,15.91
2023-05-11T10:56:05.866Z,16.18
2023-05-11T10:58:49.870Z,16.08
2023-05-11T11:01:44.091Z,15.82
2023-05-11T11:04:15.794Z,15.48
2023-05-11T11:07:07.547Z,15.60
2023-05-11T11:09:53.899Z,15.84
2023-05-11T11:12:26.562Z,15.94
2023-05-11T11:14:58.333Z,16.07
2023-05-11T11:17:30.891Z,16.38
2023-05-11T11:20:07.118Z,16.32
2023-05-11T11:22:48.816Z,16.15
2023-05-11T11:28:29.878Z,16.83
2023-05-11T11:31:26.624Z,17.34
2023-05-11T11:33:58.588Z,17.90
2023-05-11T11:36:58.472Z,18.26
2023-05-11T11:39:46.776Z,18.01
2023-05-11T11:42:17.342Z,17.57
2023-05-11T11:44:48.136Z,17.24
2023-05-11T11:47:19.508Z,16.71
2023-05-11T11:49:50.790Z,16.29
2023-05-11T11:52:40.680Z,16.45
2023-05-11T11:55:48.724Z,16.52
2023-05-11T11:58:48.195Z,16.23
2023-05-11T12:01:19.597Z,16.14
2023-05-11T12:04:01.238Z,16.34
2023-05-11T12:06:44.203Z,16.85
2023-05-11T12:09:18.778Z,17.06
2023-05-11T12:11:50.732Z,17.04
2023-05-11T12:14:25.690Z,17.14
2023-05-11T12:17:16.187Z,17.41
2023-05-11T12:19:46.673Z,17.63
2023-05-11T12:22:16.768Z,17.67
2023-05-11T12:24:46.344Z,17.84
2023-05-11T12:27:22.915Z,17.73
2023-05-11T12:29:56.330Z,17.60
2023-05-11T12:32:30.176Z,17.79
2023-05-11T12:35:01.132Z,18.13
2023-05-11T12:37:40.907Z,18.49
2023-05-11T12:40:15.896Z,18.61
2023-05-11T12:42:54.477Z,18.49
2023-05-11T12:51:56.240Z,17.78
2023-05-11T12:54:34.108Z,17.71
2023-05-11T12:57:05.197Z,17.74
2023-05-11T12:59:37.109Z,18.01
2023-05-11T13:02:21.163Z,17.86
2023-05-11T13:04:50.773Z,17.55
2023-05-11T13:07:30.365Z,17.52
2023-05-11T13:12:53.292Z,17.68
2023-05-11T13:15:30.637Z,17.73
2023-05-11T13:18:01.840Z,17.55
2023-05-11T13:20:38.029Z,17.36
2023-05-11T13:23:21.413Z,16.98
2023-05-11T13:25:55.152Z,16.76
2023-05-11T13:28:31.164Z,16.57
2023-05-11T13:31:05.532Z,16.41
2023-05-11T13:33:39.933Z,16.32
2023-05-11T13:36:09.769Z,16.33
2023-05-11T13:38:41.156Z,16.30
2023-05-11T13:41:10.542Z,16.19
2023-05-11T13:43:39.939Z,16.32
2023-05-11T13:46:14.706Z,16.31
2023-05-11T13:48:44.638Z,16.25
2023-05-11T13:51:13.902Z,16.29
2023-05-11T13:53:45.982Z,16.29
2023-05-11T13:56:19.377Z,16.32
2023-05-11T13:58:54.665Z,16.37
2023-05-11T14:01:23.959Z,16.41
2023-05-11T14:03:58.413Z,16.43
2023-05-11T14:06:28.204Z,16.40
2023-05-11T14:11:36.389Z,16.53
2023-05-11T14:14:07.454Z,16.57
2023-05-11T14:16:42.612Z,16.57
2023-05-11T14:19:17.998Z,16.63
2023-05-11T14:21:48.551Z,16.60
2023-05-11T14:24:20.191Z,16.74
2023-05-11T14:26:49.222Z,16.97
2023-05-11T14:29:18.453Z,16.88
2023-05-11T14:31:48.363Z,16.85
2023-05-11T14:34:22.830Z,16.82
2023-05-11T14:36:56.291Z,16.65
2023-05-11T14:39:27.558Z,16.62
2023-05-11T14:41:58.570Z,16.69
2023-05-11T14:47:05.040Z,16.78
2023-05-11T14:49:40.714Z,16.82
2023-05-11T14:52:10.411Z,16.87
2023-05-11T14:54:42.216Z,17.01
2023-05-11T14:57:23.075Z,17.07
2023-05-11T14:59:59.670Z,16.98
2023-05-11T15:02:30.494Z,16.90
2023-05-11T15:04:59.807Z,16.90
2023-05-11T15:07:29.052Z,16.82
2023-05-11T15:10:05.694Z,16.69
2023-05-11T15:12:34.869Z,16.74
2023-05-11T15:15:16.988Z,16.63
2023-05-11T15:17:46.538Z,16.57
2023-05-11T15:20:16.358Z,16.56
2023-05-11T15:22:51.186Z,16.56
2023-05-11T15:25:22.778Z,16.60
2023-05-11T15:27:57.774Z,16.52
2023-05-11T15:30:27.408Z,16.38
2023-05-11T15:32:57.099Z,16.45
2023-05-11T15:35:26.756Z,16.32
2023-05-11T15:37:56.124Z,16.38
2023-05-11T15:40:28.083Z,16.41
2023-05-11T15:42:58.810Z,16.47
2023-05-11T15:45:28.890Z,16.61
2023-05-11T15:47:58.404Z,16.54
2023-05-11T15:50:28.275Z,16.31
2023-05-11T15:52:58.117Z,16.21
2023-05-11T15:55:29.423Z,16.01
2023-05-11T15:58:08.066Z,15.85
2023-05-11T16:00:42.994Z,15.84
2023-05-11T16:05:53.812Z,15.80
2023-05-11T16:08:23.431Z,15.80
2023-05-11T16:10:54.723Z,15.96
2023-05-11T16:13:24.482Z,15.86
2023-05-11T16:15:59.122Z,15.80
2023-05-11T16:18:28.731Z,15.84
2023-05-11T16:20:58.079Z,15.73
2023-05-11T16:23:33.065Z,15.65
2023-05-11T16:26:09.487Z,15.58
2023-05-11T16:28:39.090Z,15.50
2023-05-11T16:31:11.225Z,15.32
2023-05-11T16:36:20.832Z,14.99
2023-05-11T16:38:50.191Z,14.81
2023-05-11T16:41:25.906Z,14.58
2023-05-11T16:43:55.323Z,14.43
2023-05-11T16:48:59.932Z,14.08
2023-05-11T16:51:29.520Z,13.95
2023-05-11T16:54:10.919Z,13.82
2023-05-11T16:56:42.531Z,13.61
2023-05-11T16:59:12.068Z,13.42
2023-05-11T17:01:41.696Z,13.39
2023-05-11T17:04:11.662Z,13.28
2023-05-11T17:06:41.090Z,13.08
2023-05-11T17:09:10.428Z,12.91
2023-05-11T17:11:46.668Z,12.55
2023-05-11T17:14:16.358Z,12.67
2023-05-11T17:16:51.077Z,12.58
2023-05-11T17:19:20.899Z,12.42
2023-05-11T17:21:50.269Z,12.17
2023-05-11T17:24:19.909Z,12.15
2023-05-11T17:26:51.326Z,12.04
2023-05-11T17:29:33.462Z,11.89
2023-05-11T17:32:10.041Z,11.75
2023-05-11T17:34:39.537Z,11.62
2023-05-11T17:37:17.366Z,11.53
2023-05-11T17:39:54.294Z,11.47
2023-05-11T17:42:25.796Z,11.42
2023-05-11T17:44:55.600Z,11.33
2023-05-11T17:47:35.038Z,11.21
2023-05-11T17:50:05.646Z,11.11
2023-05-11T17:52:35.436Z,10.92
2023-05-11T17:55:06.285Z,10.91
2023-05-11T17:57:48.089Z,10.85
2023-05-11T18:00:18.666Z,10.79
2023-05-11T18:02:53.466Z,10.66
2023-05-11T18:05:28.107Z,10.69
2023-05-11T18:08:03.784Z,10.63
2023-05-11T18:10:33.233Z,10.56
2023-05-11T18:13:11.419Z,10.45
2023-05-11T18:15:41.137Z,10.32
2023-05-11T18:18:11.765Z,10.36
2023-05-11T18:20:41.959Z,10.35
2023-05-11T18:23:11.958Z,10.34
2023-05-11T18:25:41.583Z,10.30
2023-05-11T18:28:14.260Z,10.30
2023-05-11T18:30:44.165Z,10.28
2023-05-11T18:33:13.470Z,10.27
2023-05-11T18:35:42.892Z,10.25
2023-05-11T18:38:12.407Z,10.17
2023-05-11T18:40:52.910Z,10.18
2023-05-11T18:43:24.924Z,10.13
2023-05-11T18:45:54.707Z,10.10
2023-05-11T18:48:24.469Z,10.06
2023-05-11T18:50:57.210Z,10.04
2023-05-11T18:53:26.924Z,10.15
2023-05-11T18:58:44.937Z,10.61
2023-05-11T19:01:15.016Z,10.70
2023-05-11T19:03:50.169Z,10.76
2023-05-11T19:06:24.683Z,10.77
2023-05-11T19:09:04.395Z,10.96
2023-05-11T19:11:35.192Z,11.10
2023-05-11T19:14:14.142Z,11.19
2023-05-11T19:16:43.669Z,11.25
2023-05-11T19:19:14.425Z,11.27
2023-05-11T19:21:45.195Z,11.32
2023-05-11T19:24:14.876Z,11.37
2023-05-11T19:26:49.644Z,11.52
2023-05-11T19:29:35.183Z,11.64
2023-05-11T19:32:05.209Z,11.62
2023-05-11T19:34:35.900Z,11.74
2023-05-11T19:37:15.912Z,11.95
2023-05-11T19:39:45.838Z,12.11
2023-05-11T19:42:15.834Z,12.16
2023-05-11T19:44:53.177Z,12.21
2023-05-11T19:47:22.650Z,12.27
2023-05-11T19:49:52.083Z,12.27
2023-05-11T19:52:26.702Z,12.31
2023-05-11T19:54:55.917Z,12.30
2023-05-11T19:57:30.046Z,12.31
2023-05-11T20:00:09.339Z,12.36
2023-05-11T20:02:39.247Z,12.39
2023-05-11T20:05:09.450Z,12.43
2023-05-11T20:07:39.237Z,12.43
2023-05-11T20:10:10.173Z,12.34
2023-05-11T20:12:40.112Z,12.30
2023-05-11T20:15:11.933Z,12.21
2023-05-11T20:17:41.499Z,12.14
2023-05-11T20:20:12.385Z,12.10
2023-05-11T20:22:47.690Z,12.02
2023-05-11T20:25:18.907Z,12.19
2023-05-11T20:27:49.454Z,12.10
2023-05-11T20:30:22.062Z,12.10
2023-05-11T20:35:34.924Z,12.03
2023-05-11T20:38:04.268Z,12.01
2023-05-11T20:40:33.736Z,11.94
2023-05-11T20:43:03.306Z,11.85
2023-05-11T20:45:34.589Z,11.81
2023-05-11T20:48:03.967Z,11.79
2023-05-11T20:50:33.528Z,11.72
2023-05-11T20:55:37.916Z,11.53
2023-05-11T20:58:07.242Z,11.40
2023-05-11T21:00:38.479Z,11.37
2023-05-11T21:03:08.209Z,11.32
2023-05-11T21:05:38.998Z,11.21
2023-05-11T21:08:08.325Z,11.11
2023-05-11T21:10:42.610Z,11.09
2023-05-11T21:13:12.904Z,11.05
2023-05-11T21:15:44.149Z,11.10
2023-05-11T21:18:13.633Z,11.05
2023-05-11T21:20:43.394Z,11.00
2023-05-11T21:23:13.898Z,10.90
2023-05-11T21:25:43.198Z,10.86
2023-05-11T21:28:22.684Z,10.78
2023-05-11T21:30:59.279Z,10.78
2023-05-11T21:33:28.873Z,10.86
2023-05-11T21:35:58.439Z,10.91
2023-05-11T21:38:28.000Z,10.92
2023-05-11T21:40:57.983Z,10.77
2023-05-11T21:43:27.382Z,10.95
2023-05-11T21:45:59.039Z,11.01
2023-05-11T21:48:28.410Z,11.10
2023-05-11T21:50:57.861Z,11.04
2023-05-11T21:53:27.368Z,11.11
2023-05-11T21:55:57.053Z,10.88
2023-05-11T21:58:32.346Z,11.08
2023-05-11T22:01:03.468Z,11.04
2023-05-11T22:06:18.200Z,11.06
2023-05-11T22:08:52.485Z,11.09
2023-05-11T22:11:22.276Z,11.03
2023-05-11T22:13:51.761Z,10.90
2023-05-11T22:16:27.326Z,10.87
2023-05-11T22:18:56.838Z,10.83
2023-05-11T22:21:27.541Z,10.81
2023-05-11T22:23:56.956Z,10.74
2023-05-11T22:26:36.271Z,10.68
2023-05-11T22:29:06.379Z,10.73
2023-05-11T22:31:38.276Z,10.79
2023-05-11T22:34:07.704Z,10.73
2023-05-11T22:36:37.053Z,10.77
2023-05-11T22:39:06.846Z,10.76
2023-05-11T22:41:36.111Z,10.65
2023-05-11T22:44:05.636Z,10.76
2023-05-11T22:46:42.005Z,10.72
2023-05-11T22:49:12.079Z,10.63
2023-05-11T22:51:41.540Z,10.53
2023-05-11T22:54:11.090Z,10.47
2023-05-11T22:56:40.354Z,10.45
2023-05-11T22:59:09.988Z,10.44
2023-05-11T23:01:39.345Z,10.42
2023-05-11T23:04:10.571Z,10.50
2023-05-11T23:06:50.070Z,10.64
2023-05-11T23:09:19.376Z,10.77
2023-05-11T23:11:48.653Z,10.88
2023-05-11T23:14:29.978Z,11.01
2023-05-11T23:16:59.454Z,11.11
2023-05-11T23:19:30.702Z,11.14
2023-05-11T23:24:35.821Z,11.26
2023-05-11T23:27:05.332Z,11.24
2023-05-11T23:29:35.026Z,11.15
2023-05-11T23:32:05.661Z,11.13
2023-05-11T23:34:37.675Z,11.13
2023-05-11T23:37:12.307Z,11.02
2023-05-11T23:39:41.694Z,10.98
2023-05-11T23:42:11.193Z,10.99
2023-05-11T23:44:47.382Z,11.01
2023-05-11T23:47:16.742Z,10.99
2023-05-11T23:49:48.080Z,10.98
2023-05-11T23:52:17.456Z,11.00
2023-05-11T23:54:52.278Z,11.00
2023-05-11T23:57:22.977Z,10.97
2023-05-11T23:59:57.308Z,10.96
